RJNG(METAR)
05/22 01:00
METAR RJNG 211600Z 00000KT 4000 BR FEW002 BKN050 BKN080 16/16 Q1006
RMK 1ST002 5SC050 7AC080 A2973=
戻る
トップページへ戻る
IMOC Co,.Ltd.